Time;durP1;ratioP1;P1;durP2;ratioP2;P2;SDS_P1;SDS_P2;PMS_P1;PMS_P2;Temp;Humidity;BMP_temperature;BMP_pressure;BME280_temperature;BME280_humidity;BME280_pressure;Samples;Min_cycle;Max_cycle;Signal;HPM_P1;HPM_P2
2023/03/25 00:02:04;;;;;;;18.45;3.13;;;10.30;99.90;;;;;;4978107;28;37912;-78
2023/03/25 00:04:30;;;;;;;21.27;3.50;;;10.20;99.90;;;;;;4978234;28;38639;-77
2023/03/25 00:06:56;;;;;;;18.60;3.27;;;10.20;99.90;;;;;;4969743;28;38059;-77
2023/03/25 00:09:22;;;;;;;19.47;3.77;;;10.30;99.90;;;;;;4975250;28;36267;-79
2023/03/25 00:11:49;;;;;;;19.90;3.40;;;10.30;99.90;;;;;;4975124;28;37658;-78
2023/03/25 00:14:18;;;;;;;15.47;2.83;;;10.20;99.90;;;;;;4977263;28;38508;-77
2023/03/25 00:16:47;;;;;;;26.03;4.30;;;10.20;99.90;;;;;;4972076;28;38736;-77
2023/03/25 00:19:17;;;;;;;17.87;2.83;;;10.20;99.90;;;;;;4973077;28;36053;-78
2023/03/25 00:21:43;;;;;;;20.93;3.63;;;10.20;99.90;;;;;;4969327;28;37593;-78
2023/03/25 00:24:16;;;;;;;20.10;3.10;;;10.20;99.90;;;;;;4968660;28;37027;-77
2023/03/25 00:26:45;;;;;;;13.83;2.57;;;10.20;99.90;;;;;;4990407;28;38127;-78
2023/03/25 00:29:12;;;;;;;18.45;3.22;;;10.30;99.90;;;;;;4972156;28;36851;-78
2023/03/25 00:31:39;;;;;;;22.63;4.18;;;10.30;99.90;;;;;;4989823;28;39054;-78
2023/03/25 00:34:05;;;;;;;20.98;2.97;;;10.20;99.90;;;;;;4978534;28;37238;-79
2023/03/25 00:36:31;;;;;;;17.27;2.60;;;10.30;99.90;;;;;;4992947;28;38853;-78
2023/03/25 00:38:57;;;;;;;24.60;3.80;;;10.20;99.90;;;;;;4981604;28;37469;-78
2023/03/25 00:41:24;;;;;;;21.23;3.38;;;10.20;99.90;;;;;;4976939;28;37556;-78
2023/03/25 00:43:53;;;;;;;14.77;3.00;;;10.20;99.90;;;;;;4979145;28;37280;-77
2023/03/25 00:46:21;;;;;;;15.18;3.15;;;10.30;99.90;;;;;;4970569;28;37128;-77
2023/03/25 00:48:48;;;;;;;18.13;3.03;;;10.20;99.90;;;;;;4994773;28;37997;-78
2023/03/25 00:51:18;;;;;;;23.52;4.40;;;10.20;99.90;;;;;;4994389;28;38497;-78
2023/03/25 00:53:44;;;;;;;15.37;3.10;;;10.20;99.90;;;;;;4992223;28;39003;-78
2023/03/25 00:56:13;;;;;;;18.67;2.80;;;10.20;99.90;;;;;;4972391;28;36971;-77
2023/03/25 00:58:39;;;;;;;15.57;2.77;;;10.20;99.90;;;;;;4990449;28;36890;-78
2023/03/25 01:01:12;;;;;;;15.80;2.97;;;10.20;99.90;;;;;;4992528;28;39049;-79
2023/03/25 01:03:40;;;;;;;24.17;3.00;;;10.20;99.90;;;;;;4972059;28;37161;-77
2023/03/25 01:06:16;;;;;;;20.80;3.38;;;10.10;99.90;;;;;;4949363;28;38175;-78
2023/03/25 01:08:43;;;;;;;16.90;3.60;;;10.00;99.90;;;;;;4966988;28;37470;-77
2023/03/25 01:11:22;;;;;;;17.30;3.27;;;9.80;99.90;;;;;;4972488;28;38312;-78
2023/03/25 01:13:48;;;;;;;18.67;2.90;;;9.70;99.90;;;;;;4959640;28;38444;-77
2023/03/25 01:16:14;;;;;;;17.73;3.20;;;9.50;99.90;;;;;;4961202;28;36819;-78
2023/03/25 01:18:41;;;;;;;20.70;3.40;;;9.40;99.90;;;;;;4968698;28;36951;-77
2023/03/25 01:21:07;;;;;;;22.83;3.03;;;9.30;99.90;;;;;;4966558;28;38271;-77
2023/03/25 01:23:34;;;;;;;22.37;3.13;;;9.20;99.90;;;;;;4964882;28;38419;-78
2023/03/25 01:26:01;;;;;;;24.40;3.80;;;9.30;99.90;;;;;;4968205;28;37242;-78
2023/03/25 01:28:27;;;;;;;20.83;3.53;;;9.20;99.90;;;;;;4985923;28;35653;-77
2023/03/25 01:31:04;;;;;;;22.00;3.60;;;9.20;99.90;;;;;;4986134;28;37513;-77
2023/03/25 01:33:31;;;;;;;28.77;3.30;;;9.20;99.90;;;;;;4974356;28;47505;-77
2023/03/25 01:35:58;;;;;;;30.73;4.07;;;9.20;99.90;;;;;;4980023;28;36746;-77
2023/03/25 01:38:29;;;;;;;26.20;3.30;;;9.20;99.90;;;;;;4979013;28;37377;-76
2023/03/25 01:40:56;;;;;;;22.27;3.07;;;9.30;99.90;;;;;;4971833;28;39032;-76
2023/03/25 01:43:23;;;;;;;26.07;4.43;;;9.30;99.90;;;;;;4980557;28;38174;-77
2023/03/25 01:45:49;;;;;;;25.60;3.47;;;9.30;99.90;;;;;;4976962;28;36964;-77
2023/03/25 01:48:24;;;;;;;21.17;3.30;;;9.40;99.90;;;;;;4972823;28;36251;-76
2023/03/25 01:50:56;;;;;;;19.60;2.97;;;9.40;99.90;;;;;;4973776;28;37955;-77
2023/03/25 01:53:25;;;;;;;17.52;3.75;;;9.40;99.90;;;;;;4985958;28;36753;-77
2023/03/25 01:55:53;;;;;;;21.50;3.57;;;9.40;99.90;;;;;;4970292;28;36348;-77
2023/03/25 01:58:20;;;;;;;26.37;3.27;;;9.50;99.90;;;;;;4974992;28;38267;-77
2023/03/25 02:03:23;;;;;;;19.23;3.60;;;9.50;99.90;;;;;;5153438;23;20044;-77
2023/03/25 02:06:09;;;;;;;24.53;3.30;;;9.50;99.90;;;;;;4963581;28;37485;-77
2023/03/25 02:08:40;;;;;;;14.03;3.03;;;9.50;99.90;;;;;;4964135;28;47259;-78
2023/03/25 02:11:08;;;;;;;25.40;3.60;;;9.50;99.90;;;;;;4983350;28;38733;-77
2023/03/25 02:13:37;;;;;;;26.33;3.57;;;9.40;99.90;;;;;;4968567;28;38082;-77
2023/03/25 02:16:45;;;;;;;15.90;3.40;;;9.40;99.90;;;;;;4980979;28;40192;-77
2023/03/25 02:19:50;;;;;;;19.27;3.10;;;9.50;99.90;;;;;;4980746;28;37801;-78
2023/03/25 02:22:25;;;;;;;22.10;3.53;;;9.50;99.90;;;;;;4983832;28;39229;-77
2023/03/25 02:25:10;;;;;;;24.97;3.90;;;9.50;99.90;;;;;;4980597;28;39802;-77
2023/03/25 02:28:06;;;;;;;25.10;3.83;;;9.50;99.90;;;;;;4980773;28;49150;-77
2023/03/25 02:31:13;;;;;;;22.83;4.03;;;9.50;99.90;;;;;;4971427;28;47486;-77
2023/03/25 02:33:48;;;;;;;26.53;3.93;;;9.50;99.90;;;;;;4977763;28;48768;-77
2023/03/25 02:36:49;;;;;;;34.83;5.50;;;9.50;99.90;;;;;;4960445;28;37652;-78
2023/03/25 02:39:22;;;;;;;16.57;2.93;;;9.50;99.90;;;;;;4959771;28;37215;-77
2023/03/25 02:42:02;;;;;;;23.83;3.60;;;9.50;99.90;;;;;;4960921;28;37490;-77
2023/03/25 02:44:57;;;;;;;23.07;3.80;;;9.50;99.90;;;;;;4975266;28;49122;-78
2023/03/25 02:47:29;;;;;;;23.27;4.37;;;9.50;99.90;;;;;;4954918;28;38691;-77
2023/03/25 02:50:03;;;;;;;16.30;3.25;;;9.60;99.90;;;;;;4956931;28;37182;-77
2023/03/25 02:52:40;;;;;;;26.27;4.70;;;9.60;99.90;;;;;;4951042;28;36565;-77
2023/03/25 02:55:10;;;;;;;22.90;4.13;;;9.60;99.90;;;;;;4954089;28;38291;-77
2023/03/25 02:57:42;;;;;;;21.47;3.37;;;9.60;99.90;;;;;;4976892;28;38750;-78
2023/03/25 03:00:14;;;;;;;22.58;4.10;;;9.70;99.90;;;;;;4959795;28;39169;-77
2023/03/25 03:03:05;;;;;;;23.73;4.07;;;9.70;99.90;;;;;;4954942;28;37232;-78
2023/03/25 03:05:40;;;;;;;13.83;2.70;;;9.70;99.90;;;;;;4954629;28;47420;-77
2023/03/25 03:08:18;;;;;;;21.50;3.87;;;9.60;99.90;;;;;;4947998;28;38792;-77
2023/03/25 03:11:00;;;;;;;17.87;3.70;;;9.60;99.90;;;;;;4946469;28;38827;-78
2023/03/25 03:13:55;;;;;;;24.20;4.33;;;9.60;99.90;;;;;;4944298;28;38531;-78
2023/03/25 03:16:47;;;;;;;25.90;3.63;;;9.60;99.90;;;;;;4939470;28;38865;-77
2023/03/25 03:19:37;;;;;;;31.17;3.97;;;9.60;99.90;;;;;;4964701;28;37294;-77
2023/03/25 03:22:41;;;;;;;33.03;5.33;;;9.50;99.90;;;;;;4948678;28;37159;-77
2023/03/25 03:25:22;;;;;;;30.17;4.30;;;9.40;99.90;;;;;;4945792;28;37346;-78
2023/03/25 03:27:58;;;;;;;26.10;4.47;;;9.40;99.90;;;;;;4946176;28;38846;-79
2023/03/25 03:30:38;;;;;;;25.10;4.87;;;9.40;99.90;;;;;;4964303;28;37153;-81
2023/03/25 03:33:24;;;;;;;31.53;4.97;;;9.30;99.90;;;;;;4942327;28;38304;-79
2023/03/25 03:36:25;;;;;;;34.77;4.37;;;9.20;99.90;;;;;;4946470;28;36569;-78
2023/03/25 03:39:00;;;;;;;26.40;3.87;;;9.10;99.90;;;;;;4942766;28;48613;-79
2023/03/25 03:41:28;;;;;;;31.47;5.10;;;9.10;99.90;;;;;;4949690;28;46874;-80
2023/03/25 03:44:02;;;;;;;27.53;4.97;;;9.10;99.90;;;;;;4950557;28;36961;-80
2023/03/25 03:46:38;;;;;;;34.63;5.23;;;9.00;99.90;;;;;;4942548;28;48924;-79
2023/03/25 03:49:12;;;;;;;31.67;5.00;;;9.00;99.90;;;;;;4961717;28;37968;-80
2023/03/25 03:52:07;;;;;;;29.77;5.00;;;9.00;99.90;;;;;;4950660;28;39149;-79
2023/03/25 03:54:45;;;;;;;34.63;4.97;;;9.00;99.90;;;;;;4948323;28;47146;-78
2023/03/25 03:57:20;;;;;;;50.33;6.30;;;9.00;99.90;;;;;;4950314;28;36271;-80
2023/03/25 04:00:01;;;;;;;28.93;4.23;;;9.10;99.90;;;;;;4963013;28;38104;-80
2023/03/25 04:02:41;;;;;;;32.13;5.23;;;9.20;99.90;;;;;;4946282;28;38384;-79
2023/03/25 04:05:14;;;;;;;34.17;5.20;;;9.20;99.90;;;;;;4948710;28;38400;-79
2023/03/25 04:07:43;;;;;;;36.43;5.10;;;9.30;99.90;;;;;;4948144;28;37334;-79
2023/03/25 04:10:28;;;;;;;42.80;5.90;;;9.30;99.90;;;;;;4951343;28;39287;-79
2023/03/25 04:12:57;;;;;;;32.90;6.13;;;9.30;99.90;;;;;;4959556;28;37971;-80
2023/03/25 04:15:23;;;;;;;44.57;6.10;;;9.30;99.90;;;;;;4953260;28;38515;-79
2023/03/25 04:17:49;;;;;;;34.70;6.00;;;9.30;99.90;;;;;;4953386;28;37367;-79
2023/03/25 04:20:28;;;;;;;35.00;6.17;;;9.30;99.90;;;;;;4950924;28;38898;-80
2023/03/25 04:22:54;;;;;;;48.70;7.73;;;9.30;99.90;;;;;;4952110;28;39271;-78
2023/03/25 04:25:20;;;;;;;41.40;6.33;;;9.40;99.90;;;;;;4952393;28;37322;-79
2023/03/25 04:27:52;;;;;;;44.87;5.07;;;9.30;99.90;;;;;;4949770;28;37331;-79
2023/03/25 04:30:18;;;;;;;41.90;5.57;;;9.40;99.90;;;;;;4952036;28;39427;-78
2023/03/25 04:32:46;;;;;;;34.47;5.23;;;9.40;99.90;;;;;;4954608;28;37417;-78
2023/03/25 04:35:17;;;;;;;32.63;5.47;;;9.40;99.90;;;;;;4954460;28;38450;-78
2023/03/25 04:37:53;;;;;;;34.90;5.30;;;9.40;99.90;;;;;;4953053;28;36642;-78
2023/03/25 04:40:19;;;;;;;38.63;5.93;;;9.40;99.90;;;;;;4955025;28;38897;-78
2023/03/25 04:42:46;;;;;;;35.10;5.13;;;9.50;99.90;;;;;;4954219;28;37381;-80
2023/03/25 04:45:15;;;;;;;30.40;5.63;;;9.50;99.90;;;;;;4952820;28;36839;-79
2023/03/25 04:47:46;;;;;;;37.23;5.73;;;9.40;99.90;;;;;;4951646;28;38344;-78
2023/03/25 04:50:26;;;;;;;45.77;7.53;;;9.40;99.90;;;;;;4951844;28;38638;-79
2023/03/25 04:52:53;;;;;;;48.00;6.73;;;9.40;99.90;;;;;;4952077;28;37607;-79
2023/03/25 04:55:20;;;;;;;33.27;5.93;;;9.50;99.90;;;;;;4949947;28;38255;-78
2023/03/25 04:57:48;;;;;;;32.53;5.03;;;9.50;99.90;;;;;;4947982;28;37296;-78
2023/03/25 05:00:16;;;;;;;43.47;6.17;;;9.40;99.90;;;;;;4950240;28;39230;-79
2023/03/25 05:02:45;;;;;;;37.27;5.47;;;9.40;99.90;;;;;;4952989;28;37113;-79
2023/03/25 05:05:17;;;;;;;49.63;5.53;;;9.30;99.90;;;;;;4981730;28;36982;-79
2023/03/25 05:07:48;;;;;;;37.78;5.55;;;9.20;99.90;;;;;;4973712;28;37342;-78
2023/03/25 05:10:24;;;;;;;49.93;6.83;;;9.30;99.90;;;;;;4966940;28;37596;-79
2023/03/25 05:13:00;;;;;;;39.03;5.90;;;9.30;99.90;;;;;;4969761;28;37540;-78
2023/03/25 05:15:27;;;;;;;31.37;5.57;;;9.40;99.90;;;;;;4966263;28;37375;-78
2023/03/25 05:17:53;;;;;;;38.20;6.13;;;9.40;99.90;;;;;;4979089;28;36317;-79
2023/03/25 05:20:21;;;;;;;35.27;5.00;;;9.40;99.90;;;;;;4969523;28;39113;-79
2023/03/25 05:22:47;;;;;;;38.70;5.00;;;9.30;99.90;;;;;;4972458;28;40601;-78
2023/03/25 05:25:13;;;;;;;29.90;4.20;;;9.40;99.90;;;;;;4973275;28;38481;-79
2023/03/25 05:27:39;;;;;;;34.33;4.57;;;9.50;99.90;;;;;;4988224;28;36906;-78
2023/03/25 05:30:07;;;;;;;44.50;6.27;;;9.50;99.90;;;;;;4972664;28;39565;-77
2023/03/25 05:32:33;;;;;;;41.43;5.30;;;9.50;99.90;;;;;;4971260;28;48808;-78
2023/03/25 05:35:00;;;;;;;38.97;5.67;;;9.50;99.90;;;;;;4972284;28;38261;-78
2023/03/25 05:37:27;;;;;;;42.87;4.67;;;9.50;99.90;;;;;;4975296;28;37856;-77
2023/03/25 05:39:54;;;;;;;33.37;6.60;;;9.50;99.90;;;;;;4980598;28;38748;-78
2023/03/25 05:42:23;;;;;;;40.53;5.83;;;9.50;99.90;;;;;;4973704;28;37298;-78
2023/03/25 05:44:50;;;;;;;32.43;5.50;;;9.50;99.90;;;;;;4969664;28;38600;-78
2023/03/25 05:47:24;;;;;;;32.70;6.17;;;9.50;99.90;;;;;;4974557;28;37405;-78
2023/03/25 05:49:52;;;;;;;32.83;5.43;;;9.40;99.90;;;;;;4976439;28;38074;-78
2023/03/25 05:52:23;;;;;;;40.10;6.43;;;9.50;99.90;;;;;;4970903;28;38575;-78
2023/03/25 05:54:50;;;;;;;34.70;5.60;;;9.40;99.90;;;;;;4971700;28;37202;-78
2023/03/25 05:57:17;;;;;;;47.93;6.77;;;9.30;99.90;;;;;;4986105;28;36994;-78
2023/03/25 05:59:43;;;;;;;28.90;4.73;;;9.30;99.90;;;;;;4970418;28;37702;-78
2023/03/25 06:02:16;;;;;;;39.90;5.57;;;9.20;99.90;;;;;;4974883;28;38241;-78
2023/03/25 06:04:42;;;;;;;32.93;5.23;;;9.20;99.90;;;;;;4977215;28;37263;-78
2023/03/25 06:07:18;;;;;;;35.47;6.27;;;9.20;99.90;;;;;;4994019;28;37360;-78
2023/03/25 06:09:48;;;;;;;32.47;5.10;;;9.20;99.90;;;;;;4988507;28;37963;-78
2023/03/25 06:12:18;;;;;;;32.10;5.43;;;9.20;99.90;;;;;;4967480;28;38468;-78
2023/03/25 06:14:52;;;;;;;39.17;5.60;;;9.20;99.90;;;;;;4972924;28;39610;-78
2023/03/25 06:17:23;;;;;;;27.13;4.50;;;9.20;99.90;;;;;;4976166;28;36065;-78
2023/03/25 06:19:50;;;;;;;47.27;6.00;;;9.20;99.90;;;;;;4992130;28;38745;-78
2023/03/25 06:22:19;;;;;;;38.30;5.33;;;9.30;99.90;;;;;;4979315;28;38244;-79
2023/03/25 06:24:47;;;;;;;37.77;5.17;;;9.40;99.90;;;;;;4977436;28;37720;-78
2023/03/25 06:27:16;;;;;;;38.27;6.10;;;9.40;99.90;;;;;;4983160;28;36057;-78
2023/03/25 06:29:46;;;;;;;43.13;6.37;;;9.30;99.90;;;;;;4971956;28;38777;-78
2023/03/25 06:32:13;;;;;;;37.83;5.77;;;9.20;99.90;;;;;;4974126;28;38458;-80
2023/03/25 06:34:41;;;;;;;29.47;5.63;;;9.30;99.90;;;;;;4982262;28;37007;-78
2023/03/25 06:37:08;;;;;;;32.43;6.03;;;9.20;99.90;;;;;;4984334;28;36107;-78
2023/03/25 06:39:36;;;;;;;34.30;5.67;;;9.20;99.90;;;;;;4987336;28;38083;-78
2023/03/25 06:42:04;;;;;;;32.37;5.63;;;9.20;99.90;;;;;;4992368;28;37992;-79
2023/03/25 06:44:30;;;;;;;39.27;5.53;;;9.20;99.90;;;;;;4969104;28;37833;-78
2023/03/25 06:46:56;;;;;;;28.53;5.10;;;9.30;99.90;;;;;;4974500;28;36459;-78
2023/03/25 06:49:23;;;;;;;32.30;5.10;;;9.30;99.90;;;;;;4979771;28;39007;-78
2023/03/25 06:51:49;;;;;;;37.27;6.13;;;9.40;99.90;;;;;;4983372;28;37339;-78
2023/03/25 06:54:15;;;;;;;36.07;5.60;;;9.40;99.90;;;;;;4977387;28;37111;-78
2023/03/25 06:56:41;;;;;;;30.47;5.90;;;9.50;99.90;;;;;;4982991;28;36485;-78
2023/03/25 06:59:07;;;;;;;30.23;5.00;;;9.60;99.90;;;;;;4994812;28;38570;-78
2023/03/25 07:01:33;;;;;;;33.43;4.77;;;9.60;99.90;;;;;;4978521;28;38298;-79
2023/03/25 07:03:59;;;;;;;39.83;5.40;;;9.70;99.90;;;;;;4981642;28;36780;-78
2023/03/25 07:06:26;;;;;;;33.57;5.43;;;9.80;99.90;;;;;;5001967;28;37749;-78
2023/03/25 07:08:52;;;;;;;38.13;7.05;;;9.80;99.90;;;;;;4980767;28;37389;-78
2023/03/25 07:11:26;;;;;;;39.03;5.07;;;9.80;99.90;;;;;;4995608;28;38255;-79
2023/03/25 07:13:52;;;;;;;23.10;4.60;;;9.90;99.90;;;;;;5005592;28;38071;-78
2023/03/25 07:16:22;;;;;;;39.67;5.25;;;10.00;99.90;;;;;;4980902;28;36085;-78
2023/03/25 07:18:50;;;;;;;36.63;5.70;;;10.00;99.90;;;;;;4987607;28;37604;-78
2023/03/25 07:21:17;;;;;;;35.27;5.23;;;10.00;99.90;;;;;;4991279;28;39772;-79
2023/03/25 07:23:43;;;;;;;30.07;5.17;;;10.00;99.90;;;;;;4990207;28;39394;-79
2023/03/25 07:26:12;;;;;;;32.30;5.23;;;10.00;99.90;;;;;;4977267;28;37581;-79
2023/03/25 07:28:39;;;;;;;29.13;5.23;;;10.00;99.90;;;;;;4980253;28;38951;-78
2023/03/25 07:31:10;;;;;;;28.60;4.30;;;10.00;99.90;;;;;;4976872;28;37385;-78
2023/03/25 07:33:37;;;;;;;30.20;4.57;;;10.00;99.90;;;;;;4978243;28;37146;-78
2023/03/25 07:36:05;;;;;;;33.50;5.65;;;10.00;99.90;;;;;;4972026;28;36608;-78
2023/03/25 07:38:32;;;;;;;36.17;5.20;;;10.00;99.90;;;;;;4972536;28;38994;-78
2023/03/25 07:40:58;;;;;;;41.90;5.80;;;10.00;99.90;;;;;;4984496;28;37855;-79
2023/03/25 07:43:25;;;;;;;25.47;4.50;;;10.10;99.90;;;;;;4972845;28;37308;-79
2023/03/25 07:45:53;;;;;;;42.27;5.17;;;10.10;99.90;;;;;;4953368;28;37043;-79
2023/03/25 07:48:21;;;;;;;27.17;5.70;;;10.10;99.90;;;;;;4975220;28;39040;-78
2023/03/25 07:50:51;;;;;;;35.57;5.60;;;10.10;99.90;;;;;;4961706;28;37488;-78
2023/03/25 07:53:17;;;;;;;36.67;5.37;;;10.20;99.90;;;;;;4969039;28;38126;-77
2023/03/25 07:55:49;;;;;;;44.17;6.87;;;10.20;99.90;;;;;;4987058;28;37421;-80
2023/03/25 07:58:19;;;;;;;34.47;5.68;;;10.30;99.90;;;;;;4985407;28;37927;-78
2023/03/25 08:00:46;;;;;;;32.65;6.00;;;10.30;99.90;;;;;;4999525;28;38070;-79
2023/03/25 08:03:13;;;;;;;39.00;6.00;;;10.40;99.90;;;;;;4979882;28;37301;-78
2023/03/25 08:05:47;;;;;;;33.33;5.63;;;10.50;99.90;;;;;;4995710;28;37270;-77
2023/03/25 08:08:14;;;;;;;35.23;5.77;;;10.50;99.90;;;;;;4982922;28;37943;-78
2023/03/25 08:10:42;;;;;;;41.53;6.80;;;10.50;99.90;;;;;;4992490;28;38226;-78
2023/03/25 08:13:09;;;;;;;37.70;6.30;;;10.70;99.90;;;;;;4996663;28;37718;-78
2023/03/25 08:15:35;;;;;;;41.03;6.25;;;10.70;99.90;;;;;;4987076;28;37901;-79
2023/03/25 08:18:04;;;;;;;38.63;6.53;;;10.70;99.90;;;;;;4975598;28;38997;-79
2023/03/25 08:20:30;;;;;;;37.10;6.15;;;10.70;99.90;;;;;;4992981;28;38766;-77
2023/03/25 08:22:57;;;;;;;36.45;6.97;;;10.70;99.90;;;;;;4980253;28;36904;-79
2023/03/25 08:25:24;;;;;;;34.97;5.57;;;10.70;99.90;;;;;;4983219;28;36676;-77
2023/03/25 08:27:50;;;;;;;38.40;5.97;;;10.70;99.90;;;;;;4982188;28;37872;-81
2023/03/25 08:30:16;;;;;;;40.80;5.40;;;10.70;99.90;;;;;;4994293;28;38308;-80
2023/03/25 08:32:45;;;;;;;42.70;6.63;;;10.70;99.90;;;;;;4981025;28;37145;-78
2023/03/25 08:35:11;;;;;;;38.70;6.03;;;10.70;99.90;;;;;;4982656;28;36243;-77
2023/03/25 08:37:37;;;;;;;38.47;5.30;;;10.70;99.90;;;;;;4993458;28;38152;-78
2023/03/25 08:40:08;;;;;;;48.83;6.05;;;10.80;99.90;;;;;;4986109;28;38644;-77
2023/03/25 08:42:35;;;;;;;37.40;5.50;;;10.90;99.90;;;;;;4979185;28;47265;-77
2023/03/25 08:45:02;;;;;;;33.92;5.95;;;10.90;99.90;;;;;;5011036;28;37377;-77
2023/03/25 08:47:29;;;;;;;33.40;5.38;;;10.90;99.90;;;;;;4977286;28;37537;-78
2023/03/25 08:49:55;;;;;;;39.97;6.82;;;11.00;99.90;;;;;;4979798;28;38648;-77
2023/03/25 08:52:21;;;;;;;33.65;5.68;;;11.10;99.90;;;;;;4989324;28;38325;-77
2023/03/25 08:54:47;;;;;;;34.28;5.45;;;11.20;99.90;;;;;;4983917;28;37241;-78
2023/03/25 08:57:14;;;;;;;34.92;5.95;;;11.20;99.90;;;;;;4980648;28;37977;-78
2023/03/25 08:59:41;;;;;;;28.67;5.40;;;11.40;99.90;;;;;;4998580;28;39666;-78
2023/03/25 09:02:10;;;;;;;32.78;5.75;;;11.60;99.90;;;;;;4995400;28;38109;-78
2023/03/25 09:04:38;;;;;;;29.25;6.05;;;11.90;99.90;;;;;;4997813;28;37278;-76
2023/03/25 09:07:09;;;;;;;34.55;5.53;;;11.80;99.90;;;;;;4976274;28;37616;-76
2023/03/25 09:09:41;;;;;;;30.92;6.32;;;11.90;99.90;;;;;;4984162;28;37147;-79
2023/03/25 09:12:08;;;;;;;35.72;6.82;;;11.80;99.90;;;;;;4981483;28;37187;-77
2023/03/25 09:14:34;;;;;;;31.17;5.25;;;11.90;99.90;;;;;;4991523;28;36942;-79
2023/03/25 09:17:00;;;;;;;38.75;6.80;;;11.80;99.90;;;;;;4979410;28;37945;-75
2023/03/25 09:19:26;;;;;;;39.97;5.82;;;11.90;99.90;;;;;;4979923;28;37227;-77
2023/03/25 09:21:53;;;;;;;30.75;5.88;;;11.90;99.90;;;;;;4988565;28;38500;-74
2023/03/25 09:24:21;;;;;;;28.25;5.15;;;12.00;99.90;;;;;;4968057;28;37035;-74
2023/03/25 09:26:47;;;;;;;28.02;5.38;;;12.00;99.90;;;;;;4963656;28;37564;-80
2023/03/25 09:29:14;;;;;;;30.85;5.38;;;12.00;99.90;;;;;;4964015;28;37402;-78
2023/03/25 09:31:41;;;;;;;28.42;5.00;;;12.00;99.90;;;;;;4981633;28;37794;-78
2023/03/25 09:34:08;;;;;;;31.25;5.43;;;12.20;99.90;;;;;;4979270;28;36265;-77
2023/03/25 09:36:34;;;;;;;28.67;5.05;;;12.20;99.90;;;;;;4972361;28;38737;-78
2023/03/25 09:39:00;;;;;;;25.77;5.32;;;12.10;99.90;;;;;;4980056;28;38038;-78
2023/03/25 09:41:46;;;;;;;32.22;5.40;;;12.00;99.90;;;;;;4980539;28;46888;-76
2023/03/25 09:44:27;;;;;;;30.02;5.72;;;12.00;99.90;;;;;;4979190;28;36474;-79
2023/03/25 09:46:54;;;;;;;37.53;5.90;;;12.00;99.90;;;;;;4977462;28;38692;-79
2023/03/25 09:49:32;;;;;;;33.58;5.80;;;12.10;99.90;;;;;;4995279;28;38739;-77
2023/03/25 09:51:59;;;;;;;31.80;5.07;;;12.20;99.90;;;;;;4982836;28;36965;-77
2023/03/25 09:54:32;;;;;;;28.65;4.97;;;12.20;99.90;;;;;;4998630;28;36583;-77
2023/03/25 09:57:05;;;;;;;34.10;5.75;;;12.20;99.90;;;;;;5002404;28;38738;-77
2023/03/25 09:59:45;;;;;;;33.50;5.00;;;12.40;99.90;;;;;;4977178;28;47240;-77
2023/03/25 10:02:20;;;;;;;25.25;5.40;;;12.50;99.90;;;;;;4973790;28;38824;-77
2023/03/25 10:05:18;;;;;;;32.90;5.63;;;12.70;99.90;;;;;;4968716;28;36288;-77
2023/03/25 10:08:12;;;;;;;32.97;4.43;;;12.70;99.90;;;;;;4969651;28;49611;-77
2023/03/25 10:10:54;;;;;;;33.25;5.90;;;12.90;99.90;;;;;;4973295;28;47085;-78
2023/03/25 10:13:42;;;;;;;29.83;5.95;;;13.20;99.90;;;;;;4975060;28;36932;-76
2023/03/25 10:16:35;;;;;;;26.38;4.93;;;12.90;99.90;;;;;;4986990;28;36192;-77
2023/03/25 10:19:14;;;;;;;;;;;12.70;99.90;;;;;;4970810;28;37826;-78
2023/03/25 10:22:04;;;;;;;26.70;4.60;;;12.70;99.90;;;;;;4979986;28;38579;-78
2023/03/25 10:24:48;;;;;;;28.85;4.88;;;12.50;99.90;;;;;;4975851;28;47305;-78
2023/03/25 10:27:41;;;;;;;29.92;5.28;;;12.40;99.90;;;;;;4963049;28;37366;-78
2023/03/25 10:30:16;;;;;;;;;;;12.30;99.90;;;;;;4971336;28;38891;-78
2023/03/25 10:33:00;;;;;;;31.10;5.68;;;12.20;99.90;;;;;;4974986;28;37926;-79
2023/03/25 10:35:29;;;;;;;31.33;5.07;;;11.90;99.90;;;;;;4969915;28;36940;-78
2023/03/25 10:38:12;;;;;;;27.70;5.75;;;11.80;99.90;;;;;;4975736;28;35923;-78
2023/03/25 10:40:48;;;;;;;35.33;5.20;;;11.80;99.90;;;;;;4969835;28;47137;-78
2023/03/25 10:43:23;;;;;;;35.55;6.63;;;11.60;99.90;;;;;;4974629;28;37611;-78
2023/03/25 10:45:53;;;;;;;36.45;5.18;;;11.80;99.90;;;;;;4975830;28;38413;-78
2023/03/25 10:48:26;;;;;;;39.15;6.38;;;12.00;99.90;;;;;;4977014;28;36465;-78
2023/03/25 10:51:02;;;;;;;29.95;5.25;;;12.20;99.90;;;;;;4980357;28;39242;-78
2023/03/25 10:53:29;;;;;;;36.67;6.25;;;12.20;99.90;;;;;;4976351;28;47576;-78
2023/03/25 10:56:16;;;;;;;28.15;5.38;;;12.30;99.90;;;;;;4974535;28;38219;-80
2023/03/25 10:58:46;;;;;;;32.42;6.55;;;12.50;99.90;;;;;;4980194;28;48777;-79
2023/03/25 11:01:16;;;;;;;27.27;4.22;;;12.60;99.90;;;;;;4976668;28;37928;-78
2023/03/25 11:03:44;;;;;;;24.23;5.57;;;12.70;99.90;;;;;;4974201;28;38302;-77
2023/03/25 11:06:29;;;;;;;31.02;4.97;;;12.70;99.90;;;;;;4973059;28;36851;-78
2023/03/25 11:08:57;;;;;;;22.40;4.53;;;12.60;99.90;;;;;;4976532;28;37730;-78
2023/03/25 11:11:33;;;;;;;31.13;4.88;;;12.60;99.90;;;;;;4974267;28;37773;-78
2023/03/25 11:14:01;;;;;;;27.83;4.55;;;12.60;99.90;;;;;;4969692;28;38560;-79
2023/03/25 11:16:32;;;;;;;22.85;4.65;;;12.50;99.90;;;;;;4968911;28;47219;-79
2023/03/25 11:19:03;;;;;;;23.53;4.77;;;12.40;99.90;;;;;;4969034;28;36263;-78
2023/03/25 11:21:32;;;;;;;23.17;5.03;;;12.60;99.90;;;;;;4969695;28;48472;-78
2023/03/25 11:23:59;;;;;;;30.48;5.13;;;12.70;99.90;;;;;;4975079;28;37991;-78
2023/03/25 11:26:32;;;;;;;33.92;5.57;;;12.40;99.90;;;;;;4973413;28;38226;-77
2023/03/25 11:29:07;;;;;;;30.05;6.35;;;12.50;99.90;;;;;;4969935;28;36536;-78
2023/03/25 11:31:35;;;;;;;29.00;5.07;;;12.50;99.90;;;;;;4972655;28;47039;-78
2023/03/25 11:34:28;;;;;;;28.17;4.82;;;12.50;99.90;;;;;;4972104;28;37749;-78
2023/03/25 11:37:05;;;;;;;34.33;5.80;;;12.60;99.90;;;;;;4971952;28;47299;-79
2023/03/25 11:39:36;;;;;;;33.92;6.13;;;12.50;99.90;;;;;;4972732;28;48048;-79
2023/03/25 11:42:31;;;;;;;38.33;6.93;;;12.60;99.90;;;;;;4973178;28;38922;-78
2023/03/25 11:44:59;;;;;;;32.40;7.60;;;12.80;99.90;;;;;;4975786;28;39413;-78
2023/03/25 11:47:33;;;;;;;32.08;6.75;;;12.80;99.90;;;;;;4975140;28;38046;-79
2023/03/25 11:50:00;;;;;;;32.35;6.45;;;12.80;99.90;;;;;;4972809;28;37460;-77
2023/03/25 11:52:48;;;;;;;29.58;6.13;;;13.20;99.90;;;;;;4974451;28;37622;-77
2023/03/25 11:55:19;;;;;;;31.20;5.57;;;13.40;99.90;;;;;;4963543;28;39001;-77
2023/03/25 11:57:47;;;;;;;34.63;5.78;;;13.30;99.90;;;;;;4959171;28;38712;-78
2023/03/25 12:00:31;;;;;;;26.52;5.70;;;13.10;99.90;;;;;;4972100;28;36440;-78
2023/03/25 12:03:10;;;;;;;29.45;6.13;;;13.10;99.90;;;;;;4981962;28;38648;-78
2023/03/25 12:05:37;;;;;;;31.33;5.63;;;13.20;99.90;;;;;;4976760;28;46927;-77
2023/03/25 12:08:14;;;;;;;28.83;5.32;;;13.40;99.90;;;;;;4979087;28;36965;-78
2023/03/25 12:11:07;;;;;;;28.08;5.95;;;13.60;99.90;;;;;;4979057;28;36955;-77
2023/03/25 12:13:51;;;;;;;29.30;4.50;;;13.80;99.90;;;;;;4963796;28;46808;-77
2023/03/25 12:16:17;;;;;;;26.23;5.10;;;13.80;99.90;;;;;;4982323;28;37610;-78
2023/03/25 12:19:11;;;;;;;28.27;5.75;;;13.60;99.90;;;;;;5005182;28;38328;-78
2023/03/25 12:21:58;;;;;;;33.35;6.20;;;13.50;99.90;;;;;;4974126;28;47177;-78
2023/03/25 12:24:45;;;;;;;28.23;6.30;;;13.60;99.90;;;;;;4973265;28;39003;-78
2023/03/25 12:27:45;;;;;;;31.50;5.55;;;13.70;99.90;;;;;;4934169;28;38170;-78
2023/03/25 12:30:48;;;;;;;36.05;5.57;;;13.70;99.90;;;;;;4983947;28;37589;-79
2023/03/25 12:33:25;;;;;;;26.90;4.15;;;13.60;99.90;;;;;;4977935;28;36118;-78
2023/03/25 12:36:26;;;;;;;29.85;4.78;;;13.40;99.90;;;;;;5000069;28;38860;-78
2023/03/25 12:39:08;;;;;;;33.00;5.85;;;13.50;99.90;;;;;;4988254;28;48770;-79
2023/03/25 12:41:37;;;;;;;32.58;5.05;;;13.70;99.90;;;;;;4990628;28;48226;-77
2023/03/25 12:44:17;;;;;;;29.25;6.22;;;13.80;99.90;;;;;;4990946;28;37374;-78
2023/03/25 12:46:58;;;;;;;22.25;4.25;;;13.90;99.90;;;;;;4973777;28;37676;-78
2023/03/25 12:49:35;;;;;;;29.77;5.05;;;13.80;99.90;;;;;;4998608;28;38178;-78
2023/03/25 12:52:11;;;;;;;26.70;5.38;;;13.50;99.90;;;;;;4988543;28;39027;-77
2023/03/25 12:55:08;;;;;;;36.28;6.00;;;13.60;99.90;;;;;;4960654;28;47357;-76
2023/03/25 12:58:07;;;;;;;31.85;5.45;;;13.50;99.90;;;;;;4981785;28;47249;-77
2023/03/25 13:00:36;;;;;;;28.45;5.07;;;13.60;99.90;;;;;;4930782;28;48079;-77
2023/03/25 13:03:26;;;;;;;22.60;4.00;;;13.70;99.90;;;;;;4984001;28;37842;-80
2023/03/25 13:06:14;;;;;;;21.40;4.70;;;13.90;99.90;;;;;;4987670;28;36114;-76
2023/03/25 13:08:50;;;;;;;21.77;4.00;;;14.20;99.90;;;;;;4967457;28;46967;-79
2023/03/25 13:11:22;;;;;;;19.27;4.63;;;14.30;99.90;;;;;;4969785;28;37469;-77
2023/03/25 13:13:52;;;;;;;24.15;4.50;;;13.90;99.90;;;;;;4973359;28;37085;-78
2023/03/25 13:16:23;;;;;;;33.72;5.00;;;13.50;99.90;;;;;;4976027;28;36495;-79